Terminal Aerodrome Forecast
Issued by NWS

Current Version | Previous Version | Text Only | Print | Product List | Glossary On
Versions: 1 2 3 4 5 6 7 8 9 10 11 12 13 14 15 16 17 18 19 20 21 22 23 24 25 26 27
000
FTUS41 KPBZ 271900 AAA
TAFMGW
TAF AMD
KMGW 271928Z 2719/2818 32005KT P6SM -SHSN BKN015
      TEMPO 2719/2722 2SM -SN
     FM280800 27003KT P6SM SCT025
     FM281500 26003KT P6SM SKC=

USA.gov is the U.S. government's official web portal to all federal, state and local government web resources and services.